createdAt,value
2022-11-16T00:01:30.619Z,114.65
2022-11-16T00:04:01.578Z,106.28
2022-11-16T00:06:31.257Z,112.30
2022-11-16T00:09:22.327Z,100.83
2022-11-16T00:11:54.891Z,102.43
2022-11-16T00:14:26.483Z,94.70
2022-11-16T00:16:56.034Z,103.88
2022-11-16T00:19:26.403Z,92.53
2022-11-16T00:21:56.362Z,96.10
2022-11-16T00:24:26.071Z,106.15
2022-11-16T00:26:57.768Z,98.33
2022-11-16T00:29:29.051Z,95.75
2022-11-16T00:31:58.755Z,99.28
2022-11-16T00:34:28.108Z,93.63
2022-11-16T00:36:57.446Z,102.25
2022-11-16T00:39:27.812Z,96.40
2022-11-16T00:41:57.031Z,93.03
2022-11-16T00:44:26.432Z,92.32
2022-11-16T00:46:55.791Z,89.47
2022-11-16T00:49:25.085Z,89.50
2022-11-16T00:51:54.412Z,90.20
2022-11-16T00:54:24.129Z,94.25
2022-11-16T00:56:53.435Z,86.00
2022-11-16T00:59:22.726Z,95.97
2022-11-16T01:01:52.295Z,102.28
2022-11-16T01:04:21.553Z,96.68
2022-11-16T01:06:50.932Z,97.35
2022-11-16T01:09:20.369Z,101.55
2022-11-16T01:12:05.928Z,107.82
2022-11-16T01:14:35.274Z,96.47
2022-11-16T01:17:04.596Z,91.32
2022-11-16T01:19:34.263Z,102.00
2022-11-16T01:22:04.020Z,108.33
2022-11-16T01:24:34.035Z,103.70
2022-11-16T01:27:04.256Z,105.95
2022-11-16T01:29:33.947Z,102.00
2022-11-16T01:32:03.262Z,96.50
2022-11-16T01:34:32.666Z,105.95
2022-11-16T01:37:02.024Z,103.78
2022-11-16T01:39:31.355Z,89.70
2022-11-16T01:42:00.754Z,87.35
2022-11-16T01:45:09.271Z,92.43
2022-11-16T01:47:38.645Z,100.57
2022-11-16T01:50:13.833Z,97.15
2022-11-16T01:52:49.516Z,119.25
2022-11-16T01:55:19.393Z,99.93
2022-11-16T01:57:51.291Z,99.72
2022-11-16T02:00:21.397Z,94.38
2022-11-16T02:02:50.766Z,115.93
2022-11-16T02:05:24.366Z,100.57
2022-11-16T02:08:29.311Z,96.13
2022-11-16T02:11:25.000Z,112.53
2022-11-16T02:14:12.633Z,105.25
2022-11-16T02:16:59.593Z,115.97
2022-11-16T02:20:06.083Z,106.25
2022-11-16T02:23:07.872Z,116.40
2022-11-16T02:26:16.375Z,107.07
2022-11-16T02:29:11.141Z,110.55
2022-11-16T02:31:48.102Z,112.10
2022-11-16T02:34:20.540Z,104.32
2022-11-16T02:37:22.115Z,99.57
2022-11-16T02:39:56.444Z,105.47
2022-11-16T02:42:50.277Z,97.65
2022-11-16T02:45:26.562Z,100.65
2022-11-16T02:48:14.821Z,102.05
2022-11-16T02:50:45.137Z,100.57
2022-11-16T02:53:14.536Z,105.90
2022-11-16T02:55:43.835Z,104.50
2022-11-16T02:58:16.428Z,110.07
2022-11-16T03:00:55.151Z,116.55
2022-11-16T03:03:43.992Z,99.05
2022-11-16T03:06:34.980Z,104.10
2022-11-16T03:09:28.069Z,100.60
2022-11-16T03:12:01.650Z,99.60
2022-11-16T03:14:54.989Z,93.80
2022-11-16T03:17:39.371Z,100.82
2022-11-16T03:20:31.746Z,92.82
2022-11-16T03:23:23.545Z,98.68
2022-11-16T03:25:55.885Z,96.85
2022-11-16T03:29:04.545Z,95.20
2022-11-16T03:31:41.431Z,96.30
2022-11-16T03:34:17.865Z,94.35
2022-11-16T03:36:51.016Z,103.57
2022-11-16T03:39:28.500Z,93.90
2022-11-16T03:42:01.607Z,94.50
2022-11-16T03:44:32.576Z,109.57
2022-11-16T03:47:03.362Z,97.90
2022-11-16T03:49:33.942Z,98.25
2022-11-16T03:52:03.920Z,94.50
2022-11-16T03:54:34.664Z,93.50
2022-11-16T03:57:04.591Z,87.45
2022-11-16T03:59:34.905Z,96.75
2022-11-16T04:02:04.723Z,102.78
2022-11-16T04:04:46.598Z,116.22
2022-11-16T04:07:26.625Z,97.88
2022-11-16T04:10:06.916Z,110.10
2022-11-16T04:12:46.887Z,98.80
2022-11-16T04:15:27.117Z,98.47
2022-11-16T04:18:07.231Z,97.60
2022-11-16T04:23:47.567Z,91.78
2022-11-16T04:26:17.887Z,104.68
2022-11-16T04:31:36.525Z,108.22
2022-11-16T04:34:18.227Z,112.72
2022-11-16T04:37:07.787Z,106.10
2022-11-16T04:39:37.684Z,105.38
2022-11-16T04:42:17.706Z,123.40
2022-11-16T04:44:58.954Z,110.00
2022-11-16T04:47:28.902Z,106.30
2022-11-16T04:49:58.817Z,110.70
2022-11-16T04:52:28.871Z,116.75
2022-11-16T04:54:59.113Z,120.18
2022-11-16T04:57:29.105Z,99.55
2022-11-16T04:59:59.263Z,106.20
2022-11-16T05:02:29.798Z,101.55
2022-11-16T05:04:59.917Z,105.90
2022-11-16T05:07:30.312Z,102.85
2022-11-16T05:10:00.345Z,106.43
2022-11-16T05:12:30.949Z,108.80
2022-11-16T05:15:00.937Z,96.97
2022-11-16T05:17:31.829Z,101.63
2022-11-16T05:20:21.424Z,109.18
2022-11-16T05:23:00.189Z,89.55
2022-11-16T05:25:35.217Z,84.47
2022-11-16T05:28:06.370Z,85.22
2022-11-16T05:30:36.471Z,83.53
2022-11-16T05:33:06.361Z,94.78
2022-11-16T05:35:36.287Z,86.95
2022-11-16T05:38:08.150Z,84.45
2022-11-16T05:40:38.453Z,90.38
2022-11-16T05:43:08.535Z,84.57
2022-11-16T05:45:38.614Z,85.05
2022-11-16T05:48:08.578Z,74.53
2022-11-16T05:50:42.572Z,75.82
2022-11-16T05:53:13.096Z,75.60
2022-11-16T05:55:42.868Z,75.50
2022-11-16T05:58:12.689Z,77.63
2022-11-16T06:00:42.642Z,72.07
2022-11-16T06:03:12.501Z,66.50
2022-11-16T06:05:42.472Z,74.15
2022-11-16T06:08:12.715Z,61.63
2022-11-16T06:13:11.833Z,64.18
2022-11-16T06:15:42.562Z,87.00
2022-11-16T06:18:12.877Z,53.67
2022-11-16T06:20:43.473Z,45.15
2022-11-16T06:23:13.567Z,48.58
2022-11-16T06:28:13.647Z,41.75
2022-11-16T06:30:43.616Z,50.35
2022-11-16T06:33:13.624Z,47.97
2022-11-16T06:35:44.294Z,40.53
2022-11-16T06:38:20.349Z,62.30
2022-11-16T06:40:55.996Z,54.13
2022-11-16T06:43:27.346Z,47.88
2022-11-16T06:46:00.164Z,54.95
2022-11-16T06:48:30.424Z,47.78
2022-11-16T06:51:00.399Z,53.53
2022-11-16T06:53:30.431Z,74.20
2022-11-16T06:56:06.311Z,68.90
2022-11-16T06:58:37.132Z,69.47
2022-11-16T07:01:10.235Z,51.97
2022-11-16T07:03:41.146Z,61.55
2022-11-16T07:06:17.077Z,55.67
2022-11-16T07:08:47.145Z,62.83
2022-11-16T07:11:17.272Z,62.38
2022-11-16T07:16:16.642Z,53.60
2022-11-16T07:21:18.787Z,63.97
2022-11-16T07:23:48.772Z,64.45
2022-11-16T07:26:18.814Z,63.95
2022-11-16T07:28:49.450Z,66.78
2022-11-16T07:33:48.837Z,55.05
2022-11-16T07:36:18.861Z,51.50
2022-11-16T07:38:48.975Z,57.75
2022-11-16T07:43:53.006Z,62.85
2022-11-16T07:49:16.989Z,73.22
2022-11-16T07:51:47.471Z,65.13
2022-11-16T07:54:18.187Z,65.50
2022-11-16T07:56:48.184Z,82.63
2022-11-16T07:59:21.845Z,70.57
2022-11-16T08:01:52.002Z,67.70
2022-11-16T08:04:21.910Z,71.85
2022-11-16T08:06:53.368Z,70.97
2022-11-16T08:09:23.249Z,69.63
2022-11-16T08:11:53.516Z,68.43
2022-11-16T08:14:24.554Z,66.30
2022-11-16T08:16:54.949Z,68.28
2022-11-16T08:19:27.041Z,66.25
2022-11-16T08:21:57.086Z,72.05
2022-11-16T08:26:58.881Z,77.93
2022-11-16T08:29:30.635Z,68.88
2022-11-16T08:32:00.607Z,73.15
2022-11-16T08:34:30.687Z,78.72
2022-11-16T08:37:00.643Z,64.93
2022-11-16T08:39:30.674Z,78.45
2022-11-16T08:42:01.165Z,58.17
2022-11-16T08:44:31.670Z,62.58
2022-11-16T08:47:02.192Z,76.63
2022-11-16T08:49:32.749Z,70.22
2022-11-16T08:52:03.407Z,65.22
2022-11-16T08:54:33.923Z,55.70
2022-11-16T08:57:04.564Z,62.42
2022-11-16T08:59:36.110Z,58.35
2022-11-16T09:02:07.026Z,64.68
2022-11-16T09:04:37.687Z,58.90
2022-11-16T09:07:08.537Z,56.75
2022-11-16T09:09:39.878Z,58.08
2022-11-16T09:12:10.769Z,65.80
2022-11-16T09:14:41.354Z,61.67
2022-11-16T09:17:12.215Z,61.30
2022-11-16T09:19:42.689Z,62.47
2022-11-16T09:22:13.395Z,55.83
2022-11-16T09:24:45.376Z,69.75
2022-11-16T09:27:17.184Z,68.32
2022-11-16T09:29:47.741Z,66.18
2022-11-16T09:32:18.387Z,65.55
2022-11-16T09:34:48.754Z,72.32
2022-11-16T09:37:19.484Z,80.88
2022-11-16T09:39:51.054Z,73.38
2022-11-16T09:42:47.140Z,79.28
2022-11-16T09:45:43.801Z,75.53
2022-11-16T09:48:18.383Z,79.97
2022-11-16T09:50:54.335Z,67.93
2022-11-16T09:53:50.193Z,72.60
2022-11-16T09:56:28.861Z,64.25
2022-11-16T09:59:25.322Z,73.82
2022-11-16T10:02:29.709Z,65.47
2022-11-16T10:05:30.321Z,68.82
2022-11-16T10:08:20.470Z,72.25
2022-11-16T10:11:20.783Z,61.33
2022-11-16T10:14:10.983Z,66.78
2022-11-16T10:17:04.488Z,62.05
2022-11-16T10:20:11.219Z,51.47
2022-11-16T10:23:00.746Z,77.38
2022-11-16T10:25:47.222Z,73.88
2022-11-16T10:28:42.546Z,66.78
2022-11-16T10:31:53.587Z,77.22
2022-11-16T10:34:32.693Z,73.15
2022-11-16T10:37:06.001Z,64.00
2022-11-16T10:39:38.809Z,71.50
2022-11-16T10:42:16.089Z,72.13
2022-11-16T10:44:53.903Z,78.35
2022-11-16T10:47:40.699Z,75.32
2022-11-16T10:50:34.015Z,77.95
2022-11-16T10:53:04.841Z,79.95
2022-11-16T10:55:37.385Z,79.22
2022-11-16T10:58:09.523Z,76.70
2022-11-16T11:00:48.001Z,79.97
2022-11-16T11:03:31.784Z,80.90
2022-11-16T11:06:02.742Z,74.15
2022-11-16T11:08:34.465Z,83.30
2022-11-16T11:11:24.021Z,82.38
2022-11-16T11:14:07.104Z,88.22
2022-11-16T11:16:39.433Z,85.68
2022-11-16T11:19:28.422Z,90.05
2022-11-16T11:22:03.081Z,80.50
2022-11-16T11:24:48.769Z,92.15
2022-11-16T11:27:26.760Z,97.32
2022-11-16T11:30:00.866Z,95.72
2022-11-16T11:32:41.254Z,91.05
2022-11-16T11:35:33.845Z,95.13
2022-11-16T11:38:09.643Z,97.00
2022-11-16T11:40:40.155Z,98.53
2022-11-16T11:43:26.638Z,97.80
2022-11-16T11:46:17.127Z,103.47
2022-11-16T11:48:57.620Z,96.07
2022-11-16T11:51:35.649Z,95.78
2022-11-16T11:54:07.772Z,113.95
2022-11-16T11:56:38.254Z,111.03
2022-11-16T11:59:08.807Z,119.35
2022-11-16T12:02:13.233Z,118.40
2022-11-16T12:05:07.963Z,133.88
2022-11-16T12:07:56.293Z,116.18
2022-11-16T12:10:58.327Z,134.32
2022-11-16T12:13:54.322Z,126.88
2022-11-16T12:16:49.939Z,119.20
2022-11-16T12:19:51.625Z,125.03
2022-11-16T12:22:49.160Z,131.65
2022-11-16T12:25:33.382Z,142.75
2022-11-16T12:28:32.047Z,178.00
2022-11-16T12:31:29.378Z,135.70
2022-11-16T12:34:16.980Z,143.25
2022-11-16T12:37:02.376Z,109.38
2022-11-16T12:39:43.524Z,126.50
2022-11-16T12:42:37.466Z,113.60
2022-11-16T12:45:32.008Z,106.45
2022-11-16T12:48:40.624Z,111.68
2022-11-16T12:51:40.625Z,109.15
2022-11-16T12:54:28.942Z,120.85
2022-11-16T12:57:17.581Z,110.07
2022-11-16T13:00:11.153Z,109.18
2022-11-16T13:03:01.348Z,125.72
2022-11-16T13:05:50.356Z,127.30
2022-11-16T13:08:39.254Z,160.00
2022-11-16T13:11:24.994Z,146.77
2022-11-16T13:14:01.197Z,135.02
2022-11-16T13:16:33.111Z,133.27
2022-11-16T13:19:06.657Z,142.88
2022-11-16T13:22:05.155Z,127.95
2022-11-16T13:25:15.095Z,125.22
2022-11-16T13:27:56.029Z,122.15
2022-11-16T13:30:39.153Z,116.60
2022-11-16T13:33:46.227Z,109.93
2022-11-16T13:36:49.749Z,127.32
2022-11-16T13:39:23.117Z,117.10
2022-11-16T13:42:09.856Z,118.68
2022-11-16T13:44:40.616Z,127.07
2022-11-16T13:47:32.584Z,120.10
2022-11-16T13:50:06.306Z,115.10
2022-11-16T13:55:56.913Z,123.78
2022-11-16T13:58:29.714Z,120.93
2022-11-16T14:01:06.967Z,128.10
2022-11-16T14:03:41.075Z,131.95
2022-11-16T14:06:50.296Z,140.57
2022-11-16T14:09:51.523Z,141.05
2022-11-16T14:12:55.390Z,153.88
2022-11-16T14:15:30.751Z,131.68
2022-11-16T14:18:05.427Z,149.95
2022-11-16T14:20:59.336Z,144.05
2022-11-16T14:24:05.940Z,155.20
2022-11-16T14:27:06.716Z,147.05
2022-11-16T14:29:56.387Z,161.30
2022-11-16T14:32:31.149Z,164.80
2022-11-16T14:35:03.868Z,155.77
2022-11-16T14:37:41.498Z,163.73
2022-11-16T14:40:19.700Z,155.38
2022-11-16T14:43:16.842Z,142.05
2022-11-16T14:45:54.811Z,136.00
2022-11-16T14:48:29.881Z,143.07
2022-11-16T14:51:24.200Z,135.02
2022-11-16T14:54:06.938Z,146.15
2022-11-16T14:56:37.574Z,156.98
2022-11-16T14:59:08.665Z,139.85
2022-11-16T15:01:42.524Z,150.68
2022-11-16T15:04:14.899Z,131.77
2022-11-16T15:07:00.514Z,139.63
2022-11-16T15:09:46.517Z,177.63
2022-11-16T15:12:38.426Z,181.27
2022-11-16T15:15:20.316Z,179.55
2022-11-16T15:18:14.246Z,182.75
2022-11-16T15:20:54.215Z,167.77
2022-11-16T15:23:30.340Z,149.30
2022-11-16T15:26:04.524Z,147.27
2022-11-16T15:28:36.066Z,159.65
2022-11-16T15:31:10.891Z,146.65
2022-11-16T15:33:44.754Z,153.00
2022-11-16T15:36:35.442Z,140.75
2022-11-16T15:39:06.518Z,133.00
2022-11-16T15:41:39.449Z,143.18
2022-11-16T15:44:15.613Z,127.03
2022-11-16T15:46:50.616Z,129.70
2022-11-16T15:49:37.915Z,154.48
2022-11-16T15:52:09.306Z,154.68
2022-11-16T15:54:50.851Z,157.70
2022-11-16T15:57:24.238Z,154.07
2022-11-16T15:59:58.573Z,128.90
2022-11-16T16:02:31.564Z,140.55
2022-11-16T16:05:02.087Z,132.75
2022-11-16T16:10:27.243Z,110.40
2022-11-16T16:13:00.321Z,135.68
2022-11-16T16:15:35.910Z,120.82
2022-11-16T16:18:13.706Z,120.57
2022-11-16T16:20:51.005Z,115.88
2022-11-16T16:23:28.578Z,110.28
2022-11-16T16:25:59.221Z,134.07
2022-11-16T16:28:29.738Z,116.85
2022-11-16T16:33:32.074Z,122.03
2022-11-16T16:36:02.578Z,108.00
2022-11-16T16:38:33.459Z,115.97
2022-11-16T16:41:05.663Z,108.65
2022-11-16T16:43:36.425Z,113.40
2022-11-16T16:46:07.673Z,113.80
2022-11-16T16:48:43.272Z,100.88
2022-11-16T16:51:15.638Z,98.65
2022-11-16T16:53:46.330Z,115.47
2022-11-16T16:56:19.505Z,101.88
2022-11-16T16:58:50.072Z,138.38
2022-11-16T17:01:20.852Z,110.50
2022-11-16T17:06:22.216Z,109.75
2022-11-16T17:08:52.859Z,99.78
2022-11-16T17:13:53.157Z,97.68
2022-11-16T17:18:58.777Z,81.97
2022-11-16T17:21:29.460Z,82.47
2022-11-16T17:24:00.011Z,102.10
2022-11-16T17:29:02.234Z,88.20
2022-11-16T17:31:32.829Z,90.70
2022-11-16T17:36:32.979Z,84.87
2022-11-16T17:39:03.633Z,88.32
2022-11-16T17:41:34.069Z,80.55
2022-11-16T17:44:04.556Z,85.78
2022-11-16T17:49:06.167Z,81.95
2022-11-16T17:51:36.719Z,87.50
2022-11-16T17:56:39.015Z,95.75
2022-11-16T17:59:09.641Z,91.30
2022-11-16T18:04:10.368Z,96.50
2022-11-16T18:06:42.063Z,92.72
2022-11-16T18:09:12.602Z,86.97
2022-11-16T18:14:12.897Z,92.95
2022-11-16T18:16:45.732Z,88.55
2022-11-16T18:19:20.504Z,84.20
2022-11-16T18:21:51.686Z,90.45
2022-11-16T18:24:22.321Z,91.60
2022-11-16T18:29:22.768Z,75.67
2022-11-16T18:34:23.418Z,79.32
2022-11-16T18:39:23.906Z,76.18
2022-11-16T18:44:36.229Z,71.15
2022-11-16T18:49:36.547Z,80.25
2022-11-16T18:52:07.168Z,72.30
2022-11-16T18:57:07.346Z,75.20
2022-11-16T18:59:37.928Z,75.43
2022-11-16T19:04:38.202Z,72.43
2022-11-16T19:09:38.556Z,70.57
2022-11-16T19:12:09.088Z,76.88
2022-11-16T19:17:10.051Z,76.07
2022-11-16T19:19:40.488Z,71.65
2022-11-16T19:22:11.016Z,85.20
2022-11-16T19:27:11.387Z,69.72
2022-11-16T19:32:11.644Z,79.53
2022-11-16T19:34:44.092Z,77.72
2022-11-16T19:37:14.494Z,75.55
2022-11-16T19:39:45.272Z,66.82
2022-11-16T19:42:15.641Z,74.78
2022-11-16T19:44:46.332Z,86.20
2022-11-16T19:47:16.699Z,73.93
2022-11-16T19:49:48.504Z,92.00
2022-11-16T19:52:19.124Z,76.00
2022-11-16T19:57:23.604Z,62.87
2022-11-16T19:59:54.019Z,71.85
2022-11-16T20:02:24.441Z,71.88
2022-11-16T20:04:55.409Z,63.85
2022-11-16T20:07:25.947Z,76.75
2022-11-16T20:09:56.949Z,74.53
2022-11-16T20:12:27.413Z,69.22
2022-11-16T20:14:57.758Z,70.10
2022-11-16T20:17:28.283Z,69.75
2022-11-16T20:22:28.507Z,68.80
2022-11-16T20:24:58.935Z,76.03
2022-11-16T20:27:29.481Z,68.18
2022-11-16T20:30:01.758Z,68.68
2022-11-16T20:32:35.882Z,61.55
2022-11-16T20:35:06.301Z,79.93
2022-11-16T20:37:36.952Z,77.43
2022-11-16T20:40:07.779Z,62.50
2022-11-16T20:42:38.345Z,64.15
2022-11-16T20:45:09.713Z,70.30
2022-11-16T20:47:40.192Z,65.93
2022-11-16T20:50:10.840Z,63.15
2022-11-16T20:55:15.576Z,71.63
2022-11-16T20:57:46.048Z,60.13
2022-11-16T21:00:17.313Z,65.43
2022-11-16T21:02:47.762Z,63.80
2022-11-16T21:05:18.420Z,64.75
2022-11-16T21:10:22.046Z,71.50
2022-11-16T21:13:10.392Z,73.13
2022-11-16T21:15:40.794Z,68.90
2022-11-16T21:18:11.133Z,73.53
2022-11-16T21:20:41.567Z,67.43
2022-11-16T21:23:11.830Z,66.47
2022-11-16T21:25:42.204Z,81.32
2022-11-16T21:28:12.634Z,69.93
2022-11-16T21:30:42.899Z,68.57
2022-11-16T21:33:13.205Z,62.45
2022-11-16T21:35:43.618Z,70.57
2022-11-16T21:38:13.932Z,67.95
2022-11-16T21:40:44.282Z,63.05
2022-11-16T21:43:17.168Z,74.72
2022-11-16T21:45:49.505Z,69.28
2022-11-16T21:48:20.286Z,71.40
2022-11-16T21:50:50.505Z,64.50
2022-11-16T21:53:20.833Z,61.28
2022-11-16T21:55:52.284Z,79.70
2022-11-16T21:58:22.695Z,67.80
2022-11-16T22:00:56.020Z,74.03
2022-11-16T22:03:29.762Z,74.60
2022-11-16T22:06:13.588Z,78.75
2022-11-16T22:08:44.419Z,72.38
2022-11-16T22:11:15.398Z,64.78
2022-11-16T22:13:46.302Z,63.28
2022-11-16T22:16:17.802Z,60.13
2022-11-16T22:18:48.405Z,76.03
2022-11-16T22:21:19.048Z,61.95
2022-11-16T22:26:19.269Z,57.97
2022-11-16T22:28:49.718Z,62.00
2022-11-16T22:31:20.132Z,62.65
2022-11-16T22:33:55.988Z,65.38
2022-11-16T22:36:26.424Z,61.88
2022-11-16T22:38:59.213Z,63.08
2022-11-16T22:41:29.661Z,64.20
2022-11-16T22:44:00.164Z,59.20
2022-11-16T22:46:30.501Z,70.32
2022-11-16T22:49:00.822Z,69.43
2022-11-16T22:51:33.406Z,67.28
2022-11-16T22:54:05.395Z,63.47
2022-11-16T22:56:36.336Z,69.53
2022-11-16T22:59:07.787Z,68.35
2022-11-16T23:01:38.905Z,71.15
2022-11-16T23:04:09.294Z,77.68
2022-11-16T23:06:39.791Z,74.93
2022-11-16T23:09:10.136Z,68.18
2022-11-16T23:11:57.629Z,81.38
2022-11-16T23:14:37.618Z,70.25
2022-11-16T23:17:08.319Z,70.72
2022-11-16T23:19:57.959Z,79.45
2022-11-16T23:22:38.281Z,65.38
2022-11-16T23:25:28.280Z,73.68
2022-11-16T23:28:03.814Z,73.05
2022-11-16T23:30:34.764Z,68.70
2022-11-16T23:33:06.053Z,71.35
2022-11-16T23:35:36.440Z,71.20
2022-11-16T23:38:09.087Z,79.88
2022-11-16T23:40:42.209Z,69.50
2022-11-16T23:43:29.480Z,75.82
2022-11-16T23:45:59.823Z,75.43
2022-11-16T23:48:30.148Z,70.30
2022-11-16T23:51:00.674Z,75.85
2022-11-16T23:53:30.964Z,74.63
2022-11-16T23:56:06.218Z,105.85
2022-11-16T23:58:36.787Z,76.30
